Time;durP1;ratioP1;P1;durP2;ratioP2;P2;SDS_P1;SDS_P2;PMS_P1;PMS_P2;Temp;Humidity;BMP_temperature;BMP_pressure;BME280_temperature;BME280_humidity;BME280_pressure;Samples;Min_cycle;Max_cycle;Signal;HPM_P1;HPM_P2
2023/10/29 00:01:00;;;;;;;4.03;0.60;;;10.20;99.90;;;;;;5067071;28;21215;-61
2023/10/29 00:03:26;;;;;;;;;;;10.20;99.90;;;;;;5067770;28;20475;-61
2023/10/29 00:05:51;;;;;;;1.25;0.60;;;10.30;99.90;;;;;;5073933;28;19928;-63
2023/10/29 00:08:17;;;;;;;;;;;10.30;99.90;;;;;;5072810;28;20043;-62
2023/10/29 00:10:42;;;;;;;5.20;0.95;;;10.30;99.90;;;;;;5064806;28;19932;-61
2023/10/29 00:13:08;;;;;;;;;;;10.30;99.90;;;;;;5063720;28;20036;-59
2023/10/29 00:15:34;;;;;;;1.75;0.60;;;10.30;99.90;;;;;;5064145;28;19920;-62
2023/10/29 00:18:00;;;;;;;;;;;10.30;99.90;;;;;;5063678;28;20045;-63
2023/10/29 00:20:25;;;;;;;2.88;1.00;;;10.30;99.90;;;;;;5054922;28;19920;-60
2023/10/29 00:22:51;;;;;;;;;;;10.30;99.90;;;;;;5049346;28;20769;-62
2023/10/29 00:25:17;;;;;;;3.17;0.80;;;10.30;99.90;;;;;;5052814;28;19927;-63
2023/10/29 00:27:42;;;;;;;;;;;10.30;99.90;;;;;;5049932;28;20112;-63
2023/10/29 00:30:08;;;;;;;0.68;0.45;;;10.40;99.90;;;;;;5050145;28;19932;-59
2023/10/29 00:32:34;;;;;;;;;;;10.40;99.90;;;;;;5055424;28;20036;-61
2023/10/29 00:34:59;;;;;;;1.05;0.50;;;10.40;99.90;;;;;;5055609;28;19920;-61
2023/10/29 00:37:25;;;;;;;;;;;10.30;99.90;;;;;;5056518;28;20388;-60
2023/10/29 00:39:51;;;;;;;11.68;1.02;;;10.30;99.90;;;;;;5051459;28;19924;-62
2023/10/29 00:42:16;;;;;;;0.70;0.40;;;10.40;99.90;;;;;;5054106;28;20098;-59
2023/10/29 00:44:42;;;;;;;;;;;10.40;99.90;;;;;;5051333;28;20065;-60
2023/10/29 00:47:08;;;;;;;1.15;0.60;;;10.40;99.90;;;;;;5053738;28;19928;-60
2023/10/29 00:49:35;;;;;;;0.77;0.50;;;10.40;99.90;;;;;;5048915;28;20037;-61
2023/10/29 00:52:01;;;;;;;1.20;0.60;;;10.40;99.90;;;;;;5057854;28;20045;-61
2023/10/29 00:54:26;;;;;;;;;;;10.40;99.90;;;;;;5052051;28;20041;-63
2023/10/29 00:56:53;;;;;;;0.55;0.40;;;10.40;99.90;;;;;;5058922;28;20007;-63
2023/10/29 00:59:21;;;;;;;3.28;1.10;;;10.40;99.90;;;;;;5056556;28;20091;-63
2023/10/29 01:01:47;;;;;;;1.17;0.40;;;10.40;99.90;;;;;;5057235;28;20075;-63
2023/10/29 01:04:12;;;;;;;1.83;0.68;;;10.40;99.90;;;;;;5058595;28;20148;-64
2023/10/29 01:06:40;;;;;;;;;;;10.40;99.90;;;;;;5057661;28;20132;-63
2023/10/29 01:09:07;;;;;;;1.50;0.40;;;10.40;99.90;;;;;;5053779;28;19925;-63
2023/10/29 01:11:33;;;;;;;0.98;0.40;;;10.40;99.90;;;;;;5058265;28;20508;-63
2023/10/29 01:14:00;;;;;;;0.50;0.40;;;10.40;99.90;;;;;;5058226;28;20041;-63
2023/10/29 01:16:27;;;;;;;1.52;0.40;;;10.40;99.90;;;;;;5061719;28;20053;-63
2023/10/29 01:18:55;;;;;;;3.15;0.30;;;10.40;99.90;;;;;;5059969;28;20561;-64
2023/10/29 01:21:21;;;;;;;0.65;0.40;;;10.50;99.90;;;;;;5061971;28;20040;-64
2023/10/29 01:23:46;;;;;;;;;;;10.40;99.90;;;;;;5053141;28;20037;-63
2023/10/29 01:26:12;;;;;;;0.82;0.40;;;10.40;99.90;;;;;;5066924;28;19932;-63
2023/10/29 01:28:37;;;;;;;1.63;0.57;;;10.50;99.90;;;;;;5059048;28;20548;-64
2023/10/29 01:31:03;;;;;;;;;;;10.50;99.90;;;;;;5054464;28;20033;-63
2023/10/29 01:33:28;;;;;;;2.10;0.70;;;10.50;99.90;;;;;;5054922;28;19927;-62
2023/10/29 01:35:54;;;;;;;;;;;10.50;99.90;;;;;;5064001;28;20059;-63
2023/10/29 01:38:19;;;;;;;0.63;0.50;;;10.50;99.90;;;;;;5060938;28;19920;-63
2023/10/29 01:40:45;;;;;;;;;;;10.50;99.90;;;;;;5060148;28;20106;-63
2023/10/29 01:43:10;;;;;;;0.93;0.60;;;10.50;99.90;;;;;;5059954;28;19952;-63
2023/10/29 01:45:37;;;;;;;0.98;0.68;;;10.50;99.90;;;;;;5064884;28;20602;-63
2023/10/29 01:48:03;;;;;;;3.97;0.80;;;10.50;99.90;;;;;;5057613;28;20128;-63
2023/10/29 01:50:28;;;;;;;;;;;10.50;99.90;;;;;;5063445;28;20068;-63
2023/10/29 01:52:54;;;;;;;5.00;0.93;;;10.50;99.90;;;;;;5056364;28;20411;-63
2023/10/29 01:55:20;;;;;;;2.10;1.00;;;10.50;99.90;;;;;;5062616;28;20040;-63
2023/10/29 01:57:45;;;;;;;;;;;10.50;99.90;;;;;;5057651;28;20053;-63
2023/10/29 02:00:12;;;;;;;2.35;1.05;;;10.50;99.90;;;;;;5059997;28;20622;-63
2023/10/29 02:02:38;;;;;;;2.05;1.05;;;10.50;99.90;;;;;;5058039;28;20056;-63
2023/10/29 02:05:04;;;;;;;;;;;10.50;99.90;;;;;;5056498;28;20519;-63
2023/10/29 02:07:30;;;;;;;3.40;1.13;;;10.50;99.90;;;;;;5063183;28;19921;-63
2023/10/29 02:09:55;;;;;;;2.85;1.40;;;10.50;99.90;;;;;;5062753;28;20041;-63
2023/10/29 02:12:21;;;;;;;;;;;10.50;99.90;;;;;;5054003;28;20135;-63
2023/10/29 02:14:46;;;;;;;2.47;1.10;;;10.50;99.90;;;;;;5055310;28;19916;-63
2023/10/29 02:17:12;;;;;;;;;;;10.50;99.90;;;;;;5064043;28;20787;-63
2023/10/29 02:19:38;;;;;;;1.92;1.10;;;10.50;99.90;;;;;;5058025;28;19920;-63
2023/10/29 02:22:04;;;;;;;5.90;1.13;;;10.50;99.90;;;;;;5057978;28;20456;-63
2023/10/29 02:24:29;;;;;;;;;;;10.50;99.90;;;;;;5050957;28;20037;-63
2023/10/29 02:26:55;;;;;;;4.70;1.70;;;10.50;99.90;;;;;;5055367;28;19932;-63
2023/10/29 02:29:21;;;;;;;;;;;10.60;99.90;;;;;;5059897;28;20052;-64
2023/10/29 02:31:46;;;;;;;2.40;1.10;;;10.60;99.90;;;;;;5057866;28;19994;-63
2023/10/29 02:34:12;;;;;;;10.95;1.42;;;10.50;99.90;;;;;;5051607;28;20592;-63
2023/10/29 02:36:37;;;;;;;;;;;10.60;99.90;;;;;;5055501;28;20622;-63
2023/10/29 02:39:03;;;;;;;5.75;1.40;;;10.60;99.90;;;;;;5054928;28;20392;-64
2023/10/29 02:41:30;;;;;;;3.38;1.80;;;10.60;99.90;;;;;;5058158;28;20051;-63
2023/10/29 02:43:58;;;;;;;2.63;1.20;;;10.50;99.90;;;;;;5064795;28;20274;-63
2023/10/29 02:46:24;;;;;;;5.35;2.15;;;10.60;99.90;;;;;;5064876;28;20057;-63
2023/10/29 02:48:50;;;;;;;6.95;1.40;;;10.60;99.90;;;;;;5059949;28;20045;-63
2023/10/29 02:51:16;;;;;;;;;;;10.60;99.90;;;;;;5060637;28;21362;-64
2023/10/29 02:53:41;;;;;;;4.93;1.38;;;10.60;99.90;;;;;;5059139;28;19928;-64
2023/10/29 02:56:07;;;;;;;;;;;10.60;99.90;;;;;;5052190;28;20044;-64
2023/10/29 02:58:33;;;;;;;4.03;1.27;;;10.60;99.90;;;;;;5058208;28;20016;-63
2023/10/29 03:01:07;;;;;;;3.45;1.35;;;10.60;99.90;;;;;;5049276;28;20079;-63
2023/10/29 03:03:34;;;;;;;4.18;1.15;;;10.60;99.90;;;;;;5055479;28;20041;-59
2023/10/29 03:06:06;;;;;;;1.63;1.00;;;10.60;99.90;;;;;;5050235;28;20048;-59
2023/10/29 03:08:33;;;;;;;2.47;0.95;;;10.50;99.90;;;;;;5052976;28;20186;-62
2023/10/29 03:10:59;;;;;;;3.83;1.35;;;10.60;99.90;;;;;;5046517;28;20436;-61
2023/10/29 03:13:24;;;;;;;;;;;10.50;99.90;;;;;;5060322;28;20033;-63
2023/10/29 03:15:50;;;;;;;5.32;1.77;;;10.50;99.90;;;;;;5064684;28;19920;-63
2023/10/29 03:18:16;;;;;;;;;;;10.50;99.90;;;;;;5054032;28;20036;-63
2023/10/29 03:20:41;;;;;;;6.05;1.10;;;10.50;99.90;;;;;;5053662;28;19920;-63
2023/10/29 03:23:08;;;;;;;;;;;10.50;99.90;;;;;;5055398;28;20083;-63
2023/10/29 03:25:33;;;;;;;3.75;1.23;;;10.50;99.90;;;;;;5058671;28;19925;-63
2023/10/29 03:27:59;;;;;;;;;;;10.50;99.90;;;;;;5058180;28;20045;-63
2023/10/29 03:30:24;;;;;;;7.30;1.80;;;10.50;99.90;;;;;;5057905;28;19967;-63
2023/10/29 03:32:52;;;;;;;;;;;10.50;99.90;;;;;;5050229;28;20124;-63
2023/10/29 03:35:18;;;;;;;4.28;1.30;;;10.50;99.90;;;;;;5059364;28;19935;-63
2023/10/29 03:37:43;;;;;;;;;;;10.50;99.90;;;;;;5064819;28;20062;-63
2023/10/29 03:40:09;;;;;;;2.88;1.20;;;10.50;99.90;;;;;;5056702;28;19917;-64
2023/10/29 03:42:35;;;;;;;2.15;1.25;;;10.50;99.90;;;;;;5053015;28;20493;-62
2023/10/29 03:45:01;;;;;;;;;;;10.50;99.90;;;;;;5052304;28;20116;-62
2023/10/29 03:47:26;;;;;;;3.83;0.88;;;10.50;99.90;;;;;;5049776;28;20319;-59
2023/10/29 03:49:52;;;;;;;3.95;1.17;;;10.50;99.90;;;;;;5055140;28;20170;-60
2023/10/29 03:52:21;;;;;;;;;;;10.50;99.90;;;;;;5057953;28;20119;-62
2023/10/29 03:54:48;;;;;;;3.22;0.98;;;10.50;99.90;;;;;;5050760;28;19943;-61
2023/10/29 03:57:13;;;;;;;1.17;0.85;;;10.50;99.90;;;;;;5051282;28;20711;-61
2023/10/29 03:59:39;;;;;;;;;;;10.50;99.90;;;;;;5050071;28;20036;-62
2023/10/29 04:02:05;;;;;;;2.13;0.85;;;10.50;99.90;;;;;;5052864;28;20006;-61
2023/10/29 04:04:32;;;;;;;2.47;0.90;;;10.50;99.90;;;;;;5067888;28;20385;-63
2023/10/29 04:06:58;;;;;;;2.28;0.80;;;10.50;99.90;;;;;;5052146;28;20123;-63
2023/10/29 04:09:24;;;;;;;;;;;10.50;99.90;;;;;;5051984;28;20608;-63
2023/10/29 04:11:49;;;;;;;3.25;0.85;;;10.50;99.90;;;;;;5057210;28;19931;-62
2023/10/29 04:14:15;;;;;;;;;;;10.60;99.90;;;;;;5055002;28;20119;-62
2023/10/29 04:16:40;;;;;;;2.05;0.90;;;10.60;99.90;;;;;;5050476;28;20396;-61
2023/10/29 04:19:06;;;;;;;;;;;10.50;99.90;;;;;;5049993;28;20044;-63
2023/10/29 04:21:35;;;;;;;1.60;0.60;;;10.60;99.90;;;;;;5062205;28;19921;-63
2023/10/29 04:24:00;;;;;;;2.78;0.70;;;10.60;99.90;;;;;;5057559;28;20040;-63
2023/10/29 04:26:26;;;;;;;;;;;10.60;99.90;;;;;;5052477;28;21840;-61
2023/10/29 04:28:52;;;;;;;0.65;0.60;;;10.60;99.90;;;;;;5053675;28;20384;-62
2023/10/29 04:31:18;;;;;;;1.83;0.90;;;10.60;99.90;;;;;;5058249;28;20040;-57
2023/10/29 04:33:45;;;;;;;;;;;10.60;99.90;;;;;;5058357;28;20039;-62
2023/10/29 04:36:23;;;;;;;2.58;0.70;;;10.60;99.90;;;;;;5062018;28;19967;-63
2023/10/29 04:38:49;;;;;;;3.47;1.23;;;10.70;99.90;;;;;;5055537;28;20051;-62
2023/10/29 04:41:15;;;;;;;4.25;1.15;;;10.70;99.90;;;;;;5054083;28;20646;-61
2023/10/29 04:43:43;;;;;;;;;;;10.70;99.90;;;;;;5052295;28;20041;-61
2023/10/29 04:46:13;;;;;;;2.75;1.10;;;10.70;99.90;;;;;;5051498;28;19932;-63
2023/10/29 04:48:39;;;;;;;2.78;1.10;;;10.80;99.90;;;;;;5057649;28;20045;-62
2023/10/29 04:51:06;;;;;;;2.03;1.20;;;10.80;99.90;;;;;;5052156;28;20047;-59
2023/10/29 04:53:33;;;;;;;3.00;0.70;;;10.90;99.90;;;;;;5060389;28;20036;-62
2023/10/29 04:55:58;;;;;;;2.63;1.05;;;10.90;99.90;;;;;;5051959;28;20041;-62
2023/10/29 04:58:24;;;;;;;;;;;10.90;99.90;;;;;;5057523;28;20036;-63
2023/10/29 05:00:49;;;;;;;1.63;0.82;;;10.90;99.90;;;;;;5055542;28;20694;-62
2023/10/29 05:03:15;;;;;;;;;;;11.00;99.90;;;;;;5054672;28;20394;-64
2023/10/29 05:05:41;;;;;;;2.70;1.00;;;11.00;99.90;;;;;;5060433;28;19924;-64
2023/10/29 05:08:06;;;;;;;2.40;0.90;;;11.00;99.90;;;;;;5056985;28;20037;-64
2023/10/29 05:10:32;;;;;;;;;;;11.00;99.90;;;;;;5057024;28;20037;-64
2023/10/29 05:12:57;;;;;;;4.95;1.50;;;11.10;99.90;;;;;;5052765;28;20368;-64
2023/10/29 05:15:23;;;;;;;;;;;11.10;99.90;;;;;;5059703;28;20040;-63
2023/10/29 05:17:49;;;;;;;1.35;0.80;;;11.10;99.90;;;;;;5061452;28;19987;-63
2023/10/29 05:20:15;;;;;;;;;;;11.10;99.90;;;;;;5054483;28;20052;-62
2023/10/29 05:22:41;;;;;;;3.40;0.98;;;11.10;99.90;;;;;;5057743;28;20019;-62
2023/10/29 05:25:07;;;;;;;;;;;11.10;99.90;;;;;;5053043;28;20127;-62
2023/10/29 05:27:33;;;;;;;2.20;0.90;;;11.10;99.90;;;;;;5048770;28;19974;-60
2023/10/29 05:29:59;;;;;;;2.40;0.70;;;11.10;99.90;;;;;;5055224;28;20041;-63
2023/10/29 05:32:25;;;;;;;;;;;11.10;99.90;;;;;;5053681;28;20044;-62
2023/10/29 05:34:51;;;;;;;5.10;0.90;;;11.10;99.90;;;;;;5055322;28;20365;-61
2023/10/29 05:37:17;;;;;;;;;;;11.10;99.90;;;;;;5053176;28;20032;-62
2023/10/29 05:39:42;;;;;;;3.83;1.10;;;11.10;99.90;;;;;;5060616;28;19924;-62
2023/10/29 05:42:09;;;;;;;;;;;11.10;99.90;;;;;;5056835;28;20033;-62
2023/10/29 05:44:34;;;;;;;3.17;1.17;;;11.10;99.90;;;;;;5054540;28;20132;-63
2023/10/29 05:47:00;;;;;;;;;;;11.10;99.90;;;;;;5055171;28;20790;-63
2023/10/29 05:49:25;;;;;;;2.35;0.93;;;11.10;99.90;;;;;;5054403;28;20011;-61
2023/10/29 05:51:51;;;;;;;;;;;11.10;99.90;;;;;;5057290;28;20092;-62
2023/10/29 05:54:18;;;;;;;3.45;1.17;;;11.10;99.90;;;;;;5057810;28;19942;-63
2023/10/29 05:56:44;;;;;;;6.97;1.30;;;11.10;99.90;;;;;;5061305;28;20051;-63
2023/10/29 05:59:10;;;;;;;3.65;1.33;;;11.10;99.90;;;;;;5059328;28;20060;-63
2023/10/29 06:01:38;;;;;;;;;;;11.10;99.90;;;;;;5058578;28;20052;-62
2023/10/29 06:04:04;;;;;;;9.50;1.45;;;11.10;99.90;;;;;;5053377;28;20313;-63
2023/10/29 06:06:30;;;;;;;2.95;1.50;;;11.10;99.90;;;;;;5055438;28;20053;-63
2023/10/29 06:08:56;;;;;;;;;;;11.10;99.90;;;;;;5056214;28;20047;-63
2023/10/29 06:11:21;;;;;;;5.72;1.10;;;11.10;99.90;;;;;;5051344;28;19921;-62
2023/10/29 06:13:47;;;;;;;2.88;0.90;;;11.00;99.90;;;;;;5055694;28;20511;-61
2023/10/29 06:16:13;;;;;;;1.98;0.95;;;11.10;99.90;;;;;;5052638;28;20124;-63
2023/10/29 06:18:39;;;;;;;;;;;11.00;99.90;;;;;;5053970;28;20270;-63
2023/10/29 06:21:04;;;;;;;2.88;0.85;;;11.10;99.90;;;;;;5052271;28;20497;-63
2023/10/29 06:23:30;;;;;;;;;;;11.10;99.90;;;;;;5055131;28;20965;-63
2023/10/29 06:25:56;;;;;;;3.67;0.98;;;11.10;99.90;;;;;;5054389;28;20430;-62
2023/10/29 06:28:21;;;;;;;2.50;1.30;;;11.00;99.90;;;;;;5051288;28;20045;-58
2023/10/29 06:30:47;;;;;;;;;;;11.00;99.90;;;;;;5049218;28;20097;-63
2023/10/29 06:33:12;;;;;;;1.38;0.82;;;11.10;99.90;;;;;;5055865;28;19928;-64
2023/10/29 06:35:40;;;;;;;2.03;0.80;;;11.10;99.90;;;;;;5053756;28;20090;-63
2023/10/29 06:38:06;;;;;;;1.33;0.80;;;11.10;99.90;;;;;;5068860;28;20052;-63
2023/10/29 06:40:31;;;;;;;;;;;11.10;99.90;;;;;;5050048;28;20041;-62
2023/10/29 06:42:57;;;;;;;2.97;0.57;;;11.10;99.90;;;;;;5049173;28;19916;-61
2023/10/29 06:45:22;;;;;;;;;;;11.10;99.90;;;;;;5048078;28;20096;-63
2023/10/29 06:47:48;;;;;;;2.88;0.63;;;11.20;99.90;;;;;;5055221;28;19917;-64
2023/10/29 06:50:13;;;;;;;;;;;11.20;99.90;;;;;;5053387;28;20041;-62
2023/10/29 06:52:39;;;;;;;2.00;0.95;;;11.20;99.90;;;;;;5054788;28;20006;-60
2023/10/29 06:55:04;;;;;;;;;;;11.20;99.90;;;;;;5050748;28;20048;-62
2023/10/29 06:57:30;;;;;;;1.83;0.93;;;11.20;99.90;;;;;;5056479;28;19923;-59
2023/10/29 06:59:56;;;;;;;3.42;1.00;;;11.20;99.90;;;;;;5048805;28;20637;-60
2023/10/29 07:02:21;;;;;;;;;;;11.20;99.90;;;;;;5054395;28;20518;-62
2023/10/29 07:04:47;;;;;;;2.60;0.80;;;11.30;99.90;;;;;;5052923;28;19924;-57
2023/10/29 07:07:13;;;;;;;2.03;0.70;;;11.20;99.90;;;;;;5056800;28;20411;-60
2023/10/29 07:09:38;;;;;;;;;;;11.20;99.90;;;;;;5050059;28;20059;-61
2023/10/29 07:12:04;;;;;;;2.83;0.60;;;11.20;99.90;;;;;;5048189;28;20289;-60
2023/10/29 07:14:29;;;;;;;;;;;11.20;99.90;;;;;;5048789;28;20083;-58
2023/10/29 07:16:55;;;;;;;2.83;0.80;;;11.30;99.90;;;;;;5050332;28;19932;-61
2023/10/29 07:19:20;;;;;;;3.50;0.57;;;11.30;99.90;;;;;;5057078;28;20510;-61
2023/10/29 07:21:46;;;;;;;2.10;0.55;;;11.30;99.90;;;;;;5056317;28;20044;-61
2023/10/29 07:24:11;;;;;;;;;;;11.30;99.90;;;;;;5053779;28;20029;-59
2023/10/29 07:26:37;;;;;;;3.30;1.10;;;11.30;99.90;;;;;;5056378;28;19921;-64
2023/10/29 07:29:03;;;;;;;;;;;11.30;99.90;;;;;;5060230;28;20048;-64
2023/10/29 07:31:30;;;;;;;2.28;0.70;;;11.30;99.90;;;;;;5043533;28;20343;-64
2023/10/29 07:33:56;;;;;;;2.28;0.70;;;11.30;99.90;;;;;;5044974;28;20053;-64
2023/10/29 07:36:22;;;;;;;;;;;11.30;99.90;;;;;;5040173;28;20144;-64
2023/10/29 07:38:48;;;;;;;3.05;0.60;;;11.30;99.90;;;;;;5038093;28;19917;-64
2023/10/29 07:41:20;;;;;;;;;;;11.30;99.90;;;;;;5038139;28;20048;-64
2023/10/29 07:43:46;;;;;;;2.42;0.45;;;11.30;99.90;;;;;;5039785;28;19928;-64
2023/10/29 07:46:12;;;;;;;5.55;1.02;;;11.30;99.90;;;;;;5039679;28;20036;-63
2023/10/29 07:48:38;;;;;;;;;;;11.40;99.90;;;;;;5041646;28;20112;-63
2023/10/29 07:51:03;;;;;;;4.72;0.77;;;11.40;99.90;;;;;;5044553;28;19917;-63
2023/10/29 07:53:30;;;;;;;3.65;0.82;;;11.40;99.90;;;;;;5044200;28;20416;-63
2023/10/29 07:56:16;;;;;;;1.75;0.73;;;11.40;99.90;;;;;;5052240;28;20049;-63
2023/10/29 07:58:43;;;;;;;5.80;0.60;;;11.40;99.90;;;;;;5044888;28;20056;-64
2023/10/29 08:01:14;;;;;;;2.28;0.60;;;11.40;99.90;;;;;;5040023;28;20095;-64
2023/10/29 08:03:41;;;;;;;0.73;0.40;;;11.40;99.90;;;;;;5041454;28;20501;-63
2023/10/29 08:06:06;;;;;;;2.03;0.70;;;11.40;99.90;;;;;;5042484;28;20048;-64
2023/10/29 08:08:32;;;;;;;;;;;11.40;99.90;;;;;;5044764;28;20037;-64
2023/10/29 08:10:58;;;;;;;5.65;0.60;;;11.40;99.90;;;;;;5038923;28;19916;-64
2023/10/29 08:13:23;;;;;;;;;;;11.40;99.90;;;;;;5045368;28;20044;-64
2023/10/29 08:15:49;;;;;;;2.20;0.80;;;11.40;99.90;;;;;;5042542;28;19974;-64
2023/10/29 08:18:14;;;;;;;;;;;11.50;99.90;;;;;;5045132;28;20100;-64
2023/10/29 08:20:41;;;;;;;2.33;0.50;;;11.50;99.90;;;;;;5042606;28;19924;-63
2023/10/29 08:23:07;;;;;;;1.00;0.50;;;11.50;99.90;;;;;;5038217;28;20052;-63
2023/10/29 08:25:36;;;;;;;;;;;11.50;99.90;;;;;;5042613;28;20199;-63
2023/10/29 08:28:01;;;;;;;1.60;0.73;;;11.50;99.90;;;;;;5039996;28;20000;-62
2023/10/29 08:30:27;;;;;;;;;;;11.40;99.90;;;;;;5038613;28;20171;-62
2023/10/29 08:32:53;;;;;;;1.20;0.50;;;11.50;99.90;;;;;;5052408;28;19917;-63
2023/10/29 08:35:18;;;;;;;;;;;11.40;99.90;;;;;;5061341;28;20047;-63
2023/10/29 08:37:44;;;;;;;2.47;0.68;;;11.50;99.90;;;;;;5060299;28;19917;-63
2023/10/29 08:40:10;;;;;;;;;;;11.50;99.90;;;;;;5064672;28;20052;-63
2023/10/29 08:42:36;;;;;;;1.98;0.43;;;11.50;99.90;;;;;;5059321;28;19991;-63
2023/10/29 08:45:02;;;;;;;2.05;0.60;;;11.50;99.90;;;;;;5054015;28;20040;-63
2023/10/29 08:47:27;;;;;;;;;;;11.50;99.90;;;;;;5062417;28;20063;-62
2023/10/29 08:49:53;;;;;;;1.25;0.40;;;11.50;99.90;;;;;;5058593;28;19988;-63
2023/10/29 08:52:18;;;;;;;;;;;11.60;99.90;;;;;;5051416;28;20036;-63
2023/10/29 08:54:45;;;;;;;2.92;0.63;;;11.60;99.90;;;;;;5052039;28;20417;-63
2023/10/29 08:57:11;;;;;;;3.63;0.60;;;11.70;99.90;;;;;;5060549;28;20123;-63
2023/10/29 08:59:37;;;;;;;;;;;11.70;99.90;;;;;;5060937;28;20048;-62
2023/10/29 09:02:02;;;;;;;1.73;0.45;;;11.70;99.90;;;;;;5056341;28;19916;-62
2023/10/29 09:04:28;;;;;;;;;;;11.70;99.90;;;;;;5058624;28;20041;-62
2023/10/29 09:06:53;;;;;;;5.72;0.90;;;11.80;99.90;;;;;;5056245;28;19959;-62
2023/10/29 09:09:19;;;;;;;;;;;11.80;99.90;;;;;;5061165;28;20672;-62
2023/10/29 09:11:46;;;;;;;2.15;0.50;;;11.90;99.90;;;;;;5057530;28;20289;-62
2023/10/29 09:14:13;;;;;;;7.82;0.50;;;11.90;99.90;;;;;;5059124;28;20040;-62
2023/10/29 09:16:41;;;;;;;4.80;0.50;;;11.90;99.90;;;;;;5052370;28;20048;-62
2023/10/29 09:19:07;;;;;;;4.50;0.70;;;11.90;99.90;;;;;;5056504;28;20075;-61
2023/10/29 09:21:33;;;;;;;;;;;11.90;99.90;;;;;;5060503;28;20071;-59
2023/10/29 09:23:59;;;;;;;1.45;0.63;;;11.90;99.90;;;;;;5056940;28;19952;-63
2023/10/29 09:26:24;;;;;;;;;;;11.90;99.90;;;;;;5066699;28;20049;-63
2023/10/29 09:28:50;;;;;;;2.97;0.60;;;11.80;99.90;;;;;;5060891;28;19920;-63
2023/10/29 09:31:18;;;;;;;;;;;11.80;99.90;;;;;;5059718;28;20049;-63
2023/10/29 09:33:44;;;;;;;1.70;0.40;;;11.80;99.90;;;;;;5062952;28;19920;-62
2023/10/29 09:36:10;;;;;;;;;;;11.80;99.90;;;;;;5065529;28;20041;-63
2023/10/29 09:38:36;;;;;;;1.63;0.60;;;11.80;99.90;;;;;;5052067;28;19927;-62
2023/10/29 09:41:02;;;;;;;;;;;11.80;99.90;;;;;;5051170;28;20127;-63
2023/10/29 09:43:37;;;;;;;2.13;0.70;;;11.80;99.90;;;;;;5053179;28;20459;-59
2023/10/29 09:46:05;;;;;;;1.90;0.70;;;11.80;99.90;;;;;;5057283;28;20037;-57
2023/10/29 09:48:33;;;;;;;3.45;0.43;;;11.90;99.90;;;;;;5056164;28;20044;-61
2023/10/29 09:51:04;;;;;;;2.20;0.73;;;11.90;99.90;;;;;;5053488;28;20087;-61
2023/10/29 09:53:34;;;;;;;5.28;0.70;;;11.90;99.90;;;;;;5053312;28;20524;-57
2023/10/29 09:55:59;;;;;;;2.83;0.70;;;11.90;99.90;;;;;;5055529;28;20048;-58
2023/10/29 09:58:26;;;;;;;;;;;11.90;99.90;;;;;;5054031;28;20408;-63
2023/10/29 10:00:52;;;;;;;1.73;0.87;;;11.90;99.90;;;;;;5056636;28;19996;-63
2023/10/29 10:03:18;;;;;;;3.30;0.77;;;11.90;99.90;;;;;;5052626;28;20383;-63
2023/10/29 10:05:46;;;;;;;2.15;0.50;;;11.90;99.90;;;;;;5051593;28;20049;-63
2023/10/29 10:08:12;;;;;;;4.60;0.70;;;11.90;99.90;;;;;;5058774;28;20070;-63
2023/10/29 10:10:38;;;;;;;;;;;12.00;99.90;;;;;;5054641;28;20522;-63
2023/10/29 10:13:04;;;;;;;4.30;0.73;;;12.00;99.90;;;;;;5053210;28;19974;-63
2023/10/29 10:15:30;;;;;;;1.60;0.70;;;12.00;99.90;;;;;;5062539;28;20040;-63
2023/10/29 10:18:07;;;;;;;1.88;0.70;;;12.00;99.90;;;;;;5064452;28;20053;-63
2023/10/29 10:20:34;;;;;;;2.42;0.65;;;12.00;99.90;;;;;;5056154;28;20119;-63
2023/10/29 10:23:02;;;;;;;3.60;0.95;;;12.10;99.90;;;;;;5059253;28;20109;-62
2023/10/29 10:25:29;;;;;;;3.80;0.73;;;12.10;99.90;;;;;;5062537;28;20128;-63
2023/10/29 10:27:56;;;;;;;4.43;1.20;;;12.10;99.90;;;;;;5049265;28;20643;-63
2023/10/29 10:30:36;;;;;;;2.58;0.75;;;12.10;99.90;;;;;;5061550;28;20044;-63
2023/10/29 10:33:20;;;;;;;5.18;0.95;;;12.10;99.90;;;;;;5061598;28;20052;-63
2023/10/29 10:35:56;;;;;;;1.92;0.70;;;12.00;99.90;;;;;;5054515;28;20041;-63
2023/10/29 10:38:25;;;;;;;;;;;12.00;99.90;;;;;;5054275;28;20128;-63
2023/10/29 10:41:00;;;;;;;3.33;0.95;;;12.00;99.90;;;;;;5047483;28;20001;-61
2023/10/29 10:43:28;;;;;;;6.43;1.55;;;12.10;99.90;;;;;;5047652;28;20175;-60
2023/10/29 10:45:55;;;;;;;5.47;0.77;;;12.00;99.90;;;;;;5052991;28;20049;-58
2023/10/29 10:48:21;;;;;;;7.50;1.00;;;12.10;99.90;;;;;;5057601;28;20048;-62
2023/10/29 10:50:46;;;;;;;;;;;12.00;99.90;;;;;;5054940;28;20162;-61
2023/10/29 10:53:16;;;;;;;2.67;0.70;;;12.10;99.90;;;;;;5050143;28;19924;-63
2023/10/29 10:55:43;;;;;;;3.90;0.75;;;12.10;99.90;;;;;;5051805;28;20086;-65
2023/10/29 10:58:12;;;;;;;1.55;0.65;;;12.20;99.90;;;;;;5052269;28;20048;-62
2023/10/29 11:00:38;;;;;;;2.88;0.60;;;12.20;99.90;;;;;;5055445;28;20040;-62
2023/10/29 11:03:05;;;;;;;;;;;12.30;99.90;;;;;;5055971;28;20032;-60
2023/10/29 11:05:33;;;;;;;0.70;0.30;;;12.40;99.90;;;;;;5051097;28;19917;-61
2023/10/29 11:07:59;;;;;;;1.08;0.40;;;12.40;99.90;;;;;;5055144;28;20547;-62
2023/10/29 11:10:27;;;;;;;;;;;12.40;99.90;;;;;;5058362;28;20060;-62
2023/10/29 11:12:53;;;;;;;2.17;0.40;;;12.50;99.90;;;;;;5052956;28;19931;-61
2023/10/29 11:15:22;;;;;;;;;;;12.40;99.90;;;;;;5050552;28;20036;-62
2023/10/29 11:18:02;;;;;;;1.23;0.60;;;12.40;99.90;;;;;;5051163;28;19999;-61
2023/10/29 11:20:36;;;;;;;3.65;0.70;;;12.40;99.90;;;;;;5054269;28;20059;-62
2023/10/29 11:23:09;;;;;;;1.40;0.40;;;12.40;99.90;;;;;;5056815;28;20028;-63
2023/10/29 11:25:38;;;;;;;0.73;0.40;;;12.30;99.90;;;;;;5055061;28;20133;-62
2023/10/29 11:28:04;;;;;;;2.70;0.75;;;12.30;99.90;;;;;;5053401;28;20039;-62
2023/10/29 11:30:30;;;;;;;1.15;0.38;;;12.20;99.90;;;;;;5056345;28;20128;-61
2023/10/29 11:33:17;;;;;;;;;;;12.10;99.90;;;;;;5058557;28;20174;-61
2023/10/29 11:35:45;;;;;;;1.75;0.50;;;12.10;99.90;;;;;;5056987;28;19983;-64
2023/10/29 11:38:36;;;;;;;1.80;0.63;;;12.20;99.90;;;;;;5056037;28;20041;-63
2023/10/29 11:41:33;;;;;;;2.55;0.47;;;12.20;99.90;;;;;;5054873;28;20040;-64
2023/10/29 11:44:18;;;;;;;0.98;0.50;;;12.20;99.90;;;;;;5056382;28;20049;-64
2023/10/29 11:46:56;;;;;;;2.78;0.70;;;12.20;99.90;;;;;;5058071;28;20040;-64
2023/10/29 11:49:22;;;;;;;4.53;0.65;;;12.20;99.90;;;;;;5062915;28;20036;-64
2023/10/29 11:52:02;;;;;;;6.18;0.82;;;12.20;99.90;;;;;;5053137;28;20033;-64
2023/10/29 11:54:32;;;;;;;2.50;0.60;;;12.20;99.90;;;;;;5056262;28;20048;-64
2023/10/29 11:56:59;;;;;;;2.45;0.65;;;12.20;99.90;;;;;;5055145;28;20072;-63
2023/10/29 11:59:25;;;;;;;2.05;0.50;;;12.10;99.90;;;;;;5066038;28;20032;-64
2023/10/29 12:01:53;;;;;;;1.75;0.68;;;12.10;99.90;;;;;;5053144;28;20071;-62
2023/10/29 12:04:19;;;;;;;2.33;0.50;;;12.10;99.90;;;;;;5064798;28;20052;-63
2023/10/29 12:06:48;;;;;;;3.47;0.73;;;12.10;99.90;;;;;;5054495;28;20049;-63
2023/10/29 12:09:25;;;;;;;4.15;0.85;;;12.10;99.90;;;;;;5061111;28;20856;-63
2023/10/29 12:11:53;;;;;;;2.42;0.60;;;12.10;99.90;;;;;;5053907;28;20517;-63
2023/10/29 12:14:46;;;;;;;3.78;0.75;;;12.10;99.90;;;;;;5058689;28;20043;-61
2023/10/29 12:17:13;;;;;;;1.70;0.60;;;12.10;99.90;;;;;;5053866;28;20041;-62
2023/10/29 12:19:41;;;;;;;5.53;0.93;;;12.10;99.90;;;;;;5050065;28;20098;-60
2023/10/29 12:22:25;;;;;;;1.05;0.50;;;12.00;99.90;;;;;;5056767;28;20068;-62
2023/10/29 12:25:00;;;;;;;2.63;0.60;;;12.10;99.90;;;;;;5056073;28;20071;-63
2023/10/29 12:27:26;;;;;;;2.20;0.55;;;12.10;99.90;;;;;;5059077;28;20049;-63
2023/10/29 12:29:52;;;;;;;1.67;0.55;;;12.20;99.90;;;;;;5050991;28;20043;-61
2023/10/29 12:32:23;;;;;;;2.67;0.70;;;12.20;99.90;;;;;;5068780;28;20044;-62
2023/10/29 12:34:54;;;;;;;1.77;0.40;;;12.30;99.90;;;;;;5051278;28;20107;-63
2023/10/29 12:37:27;;;;;;;0.65;0.40;;;12.30;99.90;;;;;;5061074;28;20052;-63
2023/10/29 12:39:56;;;;;;;2.25;0.60;;;12.30;99.90;;;;;;5064197;28;20560;-63
2023/10/29 12:42:53;;;;;;;0.73;0.50;;;12.30;99.90;;;;;;5068253;28;20688;-63
2023/10/29 12:45:31;;;;;;;2.78;0.47;;;12.20;99.90;;;;;;5062934;28;20025;-63
2023/10/29 12:48:15;;;;;;;0.80;0.50;;;12.20;99.90;;;;;;5064143;28;20522;-63
2023/10/29 12:50:45;;;;;;;3.25;0.65;;;12.20;99.90;;;;;;5061510;28;20549;-63
2023/10/29 12:53:11;;;;;;;1.25;0.57;;;12.20;99.90;;;;;;5069611;28;20129;-62
2023/10/29 12:55:46;;;;;;;;;;;12.10;99.90;;;;;;5068254;28;20654;-62
2023/10/29 12:58:11;;;;;;;3.05;0.70;;;12.00;99.90;;;;;;5082873;28;19921;-63
2023/10/29 13:00:37;;;;;;;;;;;12.00;99.90;;;;;;5059158;28;20052;-64
2023/10/29 13:03:07;;;;;;;3.35;0.68;;;11.80;99.90;;;;;;5059680;28;19940;-62
2023/10/29 13:05:33;;;;;;;2.03;0.47;;;11.80;99.90;;;;;;5055710;28;20458;-63
2023/10/29 13:07:59;;;;;;;0.73;0.30;;;11.70;99.90;;;;;;5054930;28;20072;-63
2023/10/29 13:10:25;;;;;;;3.35;0.50;;;11.70;99.90;;;;;;5052620;28;20037;-64
2023/10/29 13:12:51;;;;;;;;;;;11.60;99.90;;;;;;5056492;28;20041;-63